sensor_id;sensor_type;location;lat;lon;timestamp;pressure;altitude;pressure_sealevel;temperature;humidity
71996;BME280;59862;47.732;7.346;2022-08-03T00:01:11;98015.27;;;21.25;59.33
71996;BME280;59862;47.732;7.346;2022-08-03T00:03:39;98020.27;;;21.22;59.08
71996;BME280;59862;47.732;7.346;2022-08-03T00:06:07;98013.50;;;21.19;59.27
71996;BME280;59862;47.732;7.346;2022-08-03T00:08:34;98009.95;;;21.15;59.47
71996;BME280;59862;47.732;7.346;2022-08-03T00:11:03;98009.50;;;21.02;59.76
71996;BME280;59862;47.732;7.346;2022-08-03T00:13:33;98012.68;;;21.04;59.90
71996;BME280;59862;47.732;7.346;2022-08-03T00:16:00;98012.11;;;21.01;59.88
71996;BME280;59862;47.732;7.346;2022-08-03T00:18:28;98016.95;;;20.97;59.96
71996;BME280;59862;47.732;7.346;2022-08-03T00:20:55;98010.98;;;20.95;60.00
71996;BME280;59862;47.732;7.346;2022-08-03T00:23:23;98008.41;;;20.92;60.29
71996;BME280;59862;47.732;7.346;2022-08-03T00:25:50;98011.05;;;20.87;60.42
71996;BME280;59862;47.732;7.346;2022-08-03T00:28:18;98007.69;;;20.84;60.58
71996;BME280;59862;47.732;7.346;2022-08-03T00:30:45;98006.53;;;20.78;60.78
71996;BME280;59862;47.732;7.346;2022-08-03T00:33:13;98005.95;;;20.75;60.88
71996;BME280;59862;47.732;7.346;2022-08-03T00:35:40;98004.41;;;20.71;60.93
71996;BME280;59862;47.732;7.346;2022-08-03T00:38:07;98006.44;;;20.67;61.15
71996;BME280;59862;47.732;7.346;2022-08-03T00:40:35;98003.08;;;20.64;61.18
71996;BME280;59862;47.732;7.346;2022-08-03T00:43:05;98004.31;;;20.59;61.37
71996;BME280;59862;47.732;7.346;2022-08-03T00:45:38;98002.16;;;20.55;61.54
71996;BME280;59862;47.732;7.346;2022-08-03T00:48:08;98004.80;;;20.50;61.67
71996;BME280;59862;47.732;7.346;2022-08-03T00:50:38;98007.43;;;20.46;61.86
71996;BME280;59862;47.732;7.346;2022-08-03T00:53:08;98005.88;;;20.41;62.04
71996;BME280;59862;47.732;7.346;2022-08-03T00:55:38;98008.28;;;20.39;62.11
71996;BME280;59862;47.732;7.346;2022-08-03T00:58:07;98010.31;;;20.32;62.43
71996;BME280;59862;47.732;7.346;2022-08-03T01:00:38;98012.39;;;20.20;62.81
71996;BME280;59862;47.732;7.346;2022-08-03T01:03:07;98010.23;;;20.16;62.88
71996;BME280;59862;47.732;7.346;2022-08-03T01:05:39;98014.99;;;20.19;62.90
71996;BME280;59862;47.732;7.346;2022-08-03T01:08:18;98006.23;;;20.17;62.98
71996;BME280;59862;47.732;7.346;2022-08-03T01:10:43;98014.61;;;20.14;63.17
71996;BME280;59862;47.732;7.346;2022-08-03T01:13:30;98002.06;;;20.10;63.21
71996;BME280;59862;47.732;7.346;2022-08-03T01:16:05;97994.73;;;20.05;63.47
71996;BME280;59862;47.732;7.346;2022-08-03T01:21:47;98000.96;;;19.97;63.57
71996;BME280;59862;47.732;7.346;2022-08-03T01:24:21;98001.39;;;19.92;63.70
71996;BME280;59862;47.732;7.346;2022-08-03T01:29:49;97991.45;;;19.87;63.97
71996;BME280;59862;47.732;7.346;2022-08-03T01:32:17;97991.48;;;19.84;63.99
71996;BME280;59862;47.732;7.346;2022-08-03T01:35:00;97984.53;;;19.80;63.81
71996;BME280;59862;47.732;7.346;2022-08-03T01:37:25;97988.11;;;19.81;63.83
71996;BME280;59862;47.732;7.346;2022-08-03T01:39:48;97988.92;;;19.78;63.89
71996;BME280;59862;47.732;7.346;2022-08-03T01:42:18;97985.53;;;19.78;63.70
71996;BME280;59862;47.732;7.346;2022-08-03T01:44:46;97984.53;;;19.80;63.48
71996;BME280;59862;47.732;7.346;2022-08-03T01:47:16;97985.73;;;19.79;63.35
71996;BME280;59862;47.732;7.346;2022-08-03T01:49:45;97986.77;;;19.74;63.20
71996;BME280;59862;47.732;7.346;2022-08-03T01:52:18;97986.73;;;19.77;62.87
71996;BME280;59862;47.732;7.346;2022-08-03T01:54:48;97985.75;;;19.76;62.34
71996;BME280;59862;47.732;7.346;2022-08-03T01:57:18;97984.14;;;19.78;62.05
71996;BME280;59862;47.732;7.346;2022-08-03T01:59:48;97985.92;;;19.80;61.80
71996;BME280;59862;47.732;7.346;2022-08-03T02:02:17;97984.94;;;19.79;61.83
71996;BME280;59862;47.732;7.346;2022-08-03T02:04:46;97982.75;;;19.78;61.79
71996;BME280;59862;47.732;7.346;2022-08-03T02:07:15;97982.75;;;19.78;61.90
71996;BME280;59862;47.732;7.346;2022-08-03T02:09:45;97986.14;;;19.78;61.70
71996;BME280;59862;47.732;7.346;2022-08-03T02:12:13;97984.74;;;19.78;61.55
71996;BME280;59862;47.732;7.346;2022-08-03T02:14:43;97983.78;;;19.73;61.49
71996;BME280;59862;47.732;7.346;2022-08-03T02:17:12;97982.58;;;19.74;61.31
71996;BME280;59862;47.732;7.346;2022-08-03T02:19:42;97986.57;;;19.73;61.00
71996;BME280;59862;47.732;7.346;2022-08-03T02:22:11;97977.59;;;19.73;60.85
71996;BME280;59862;47.732;7.346;2022-08-03T02:24:40;97975.81;;;19.71;61.01
71996;BME280;59862;47.732;7.346;2022-08-03T02:27:22;97973.84;;;19.68;61.02
71996;BME280;59862;47.732;7.346;2022-08-03T02:29:42;97976.84;;;19.66;61.09
71996;BME280;59862;47.732;7.346;2022-08-03T02:32:13;97978.23;;;19.66;61.01
71996;BME280;59862;47.732;7.346;2022-08-03T02:34:43;97973.28;;;19.61;60.99
71996;BME280;59862;47.732;7.346;2022-08-03T02:37:12;97967.31;;;19.59;61.03
71996;BME280;59862;47.732;7.346;2022-08-03T02:39:42;97961.95;;;19.57;61.05
71996;BME280;59862;47.732;7.346;2022-08-03T02:42:11;97965.94;;;19.56;61.06
71996;BME280;59862;47.732;7.346;2022-08-03T02:44:41;97954.16;;;19.49;61.25
71996;BME280;59862;47.732;7.346;2022-08-03T02:47:12;97957.98;;;19.44;61.44
71996;BME280;59862;47.732;7.346;2022-08-03T02:49:41;97955.81;;;19.40;61.56
71996;BME280;59862;47.732;7.346;2022-08-03T02:52:11;97956.22;;;19.38;61.63
71996;BME280;59862;47.732;7.346;2022-08-03T02:54:41;97956.43;;;19.36;61.56
71996;BME280;59862;47.732;7.346;2022-08-03T02:57:10;97955.66;;;19.31;61.72
71996;BME280;59862;47.732;7.346;2022-08-03T02:59:39;97960.23;;;19.30;61.78
71996;BME280;59862;47.732;7.346;2022-08-03T03:02:09;97962.06;;;19.25;61.96
71996;BME280;59862;47.732;7.346;2022-08-03T03:04:38;97966.05;;;19.24;61.97
71996;BME280;59862;47.732;7.346;2022-08-03T03:07:06;97963.88;;;19.20;62.11
71996;BME280;59862;47.732;7.346;2022-08-03T03:09:34;97973.03;;;19.20;62.13
71996;BME280;59862;47.732;7.346;2022-08-03T03:12:02;97962.28;;;19.19;62.19
71996;BME280;59862;47.732;7.346;2022-08-03T03:14:30;97965.69;;;19.15;62.23
71996;BME280;59862;47.732;7.346;2022-08-03T03:17:00;97969.27;;;19.15;62.47
71996;BME280;59862;47.732;7.346;2022-08-03T03:19:30;97969.48;;;19.13;62.55
71996;BME280;59862;47.732;7.346;2022-08-03T03:22:01;97971.48;;;19.09;62.54
71996;BME280;59862;47.732;7.346;2022-08-03T03:24:30;97967.31;;;19.05;62.76
71996;BME280;59862;47.732;7.346;2022-08-03T03:26:58;97973.89;;;19.03;62.90
71996;BME280;59862;47.732;7.346;2022-08-03T03:29:26;97975.70;;;18.98;63.17
71996;BME280;59862;47.732;7.346;2022-08-03T03:31:54;97971.73;;;18.95;63.31
71996;BME280;59862;47.732;7.346;2022-08-03T03:34:23;97971.73;;;18.92;63.47
71996;BME280;59862;47.732;7.346;2022-08-03T03:36:51;97971.34;;;18.90;63.53
71996;BME280;59862;47.732;7.346;2022-08-03T03:39:19;97980.30;;;18.89;63.65
71996;BME280;59862;47.732;7.346;2022-08-03T03:41:47;97983.67;;;18.85;63.81
71996;BME280;59862;47.732;7.346;2022-08-03T03:44:15;97987.06;;;18.81;63.95
71996;BME280;59862;47.732;7.346;2022-08-03T03:46:43;97983.30;;;18.76;64.22
71996;BME280;59862;47.732;7.346;2022-08-03T03:49:10;97989.27;;;18.75;64.35
71996;BME280;59862;47.732;7.346;2022-08-03T03:51:38;97985.30;;;18.72;64.47
71996;BME280;59862;47.732;7.346;2022-08-03T03:54:05;97992.86;;;18.72;64.68
71996;BME280;59862;47.732;7.346;2022-08-03T03:56:33;97991.27;;;18.67;64.85
71996;BME280;59862;47.732;7.346;2022-08-03T03:59:00;97992.06;;;18.67;64.91
71996;BME280;59862;47.732;7.346;2022-08-03T04:01:28;97991.47;;;18.68;65.14
71996;BME280;59862;47.732;7.346;2022-08-03T04:03:55;97984.11;;;18.66;65.29
71996;BME280;59862;47.732;7.346;2022-08-03T04:06:23;97995.05;;;18.65;65.35
71996;BME280;59862;47.732;7.346;2022-08-03T04:09:10;97998.41;;;18.61;65.42
71996;BME280;59862;47.732;7.346;2022-08-03T04:11:57;97993.05;;;18.55;65.77
71996;BME280;59862;47.732;7.346;2022-08-03T04:14:34;97987.48;;;18.48;66.13
71996;BME280;59862;47.732;7.346;2022-08-03T04:17:04;97986.70;;;18.36;66.57
71996;BME280;59862;47.732;7.346;2022-08-03T04:19:47;97988.89;;;18.41;66.53
71996;BME280;59862;47.732;7.346;2022-08-03T04:22:21;97986.89;;;18.45;66.46
71996;BME280;59862;47.732;7.346;2022-08-03T04:24:57;97979.94;;;18.45;66.53
71996;BME280;59862;47.732;7.346;2022-08-03T04:27:22;97980.13;;;18.46;66.62
71996;BME280;59862;47.732;7.346;2022-08-03T04:29:52;97978.73;;;18.46;66.76
71996;BME280;59862;47.732;7.346;2022-08-03T04:32:22;97983.52;;;18.45;66.92
71996;BME280;59862;47.732;7.346;2022-08-03T04:34:53;97989.68;;;18.45;66.91
71996;BME280;59862;47.732;7.346;2022-08-03T04:37:40;97982.72;;;18.45;66.96
71996;BME280;59862;47.732;7.346;2022-08-03T04:40:05;97987.09;;;18.49;66.88
71996;BME280;59862;47.732;7.346;2022-08-03T04:42:34;97987.48;;;18.51;67.05
71996;BME280;59862;47.732;7.346;2022-08-03T04:45:03;97994.84;;;18.53;67.17
71996;BME280;59862;47.732;7.346;2022-08-03T04:47:33;97995.63;;;18.57;67.17
71996;BME280;59862;47.732;7.346;2022-08-03T04:50:01;97997.64;;;18.64;67.09
71996;BME280;59862;47.732;7.346;2022-08-03T04:52:30;97998.83;;;18.70;67.03
71996;BME280;59862;47.732;7.346;2022-08-03T04:54:59;97999.41;;;18.77;66.92
71996;BME280;59862;47.732;7.346;2022-08-03T04:57:27;97997.02;;;18.82;66.84
71996;BME280;59862;47.732;7.346;2022-08-03T04:59:54;98006.18;;;18.90;66.61
71996;BME280;59862;47.732;7.346;2022-08-03T05:02:23;98004.57;;;18.96;66.46
71996;BME280;59862;47.732;7.346;2022-08-03T05:04:52;98008.13;;;19.04;66.35
71996;BME280;59862;47.732;7.346;2022-08-03T05:07:19;98006.51;;;19.13;65.95
71996;BME280;59862;47.732;7.346;2022-08-03T05:09:47;98012.25;;;19.21;65.69
71996;BME280;59862;47.732;7.346;2022-08-03T05:12:14;98007.45;;;19.29;65.55
71996;BME280;59862;47.732;7.346;2022-08-03T05:14:41;98009.01;;;19.37;65.34
71996;BME280;59862;47.732;7.346;2022-08-03T05:17:09;98007.97;;;19.46;65.06
71996;BME280;59862;47.732;7.346;2022-08-03T05:19:36;98013.16;;;19.58;64.65
71996;BME280;59862;47.732;7.346;2022-08-03T05:22:04;98012.50;;;19.70;64.49
71996;BME280;59862;47.732;7.346;2022-08-03T05:24:31;98017.41;;;19.81;64.27
71996;BME280;59862;47.732;7.346;2022-08-03T05:26:58;98023.36;;;19.86;63.58
71996;BME280;59862;47.732;7.346;2022-08-03T05:29:26;98019.11;;;19.97;63.49
71996;BME280;59862;47.732;7.346;2022-08-03T05:31:54;98019.61;;;20.11;63.16
71996;BME280;59862;47.732;7.346;2022-08-03T05:34:21;98021.73;;;20.25;62.97
71996;BME280;59862;47.732;7.346;2022-08-03T05:36:49;98025.23;;;20.40;62.63
71996;BME280;59862;47.732;7.346;2022-08-03T05:39:16;98026.31;;;20.53;62.00
71996;BME280;59862;47.732;7.346;2022-08-03T05:41:43;98025.08;;;20.58;61.76
71996;BME280;59862;47.732;7.346;2022-08-03T05:44:11;98025.81;;;20.66;61.63
71996;BME280;59862;47.732;7.346;2022-08-03T05:46:38;98022.53;;;20.74;60.92
71996;BME280;59862;47.732;7.346;2022-08-03T05:49:06;98026.28;;;20.83;59.77
71996;BME280;59862;47.732;7.346;2022-08-03T05:51:33;98031.34;;;20.95;58.31
71996;BME280;59862;47.732;7.346;2022-08-03T05:54:03;98024.28;;;21.02;58.37
71996;BME280;59862;47.732;7.346;2022-08-03T05:56:30;98025.22;;;21.07;57.58
71996;BME280;59862;47.732;7.346;2022-08-03T05:58:57;98025.03;;;21.06;57.04
71996;BME280;59862;47.732;7.346;2022-08-03T06:01:25;98024.81;;;21.09;57.20
71996;BME280;59862;47.732;7.346;2022-08-03T06:03:52;98021.37;;;21.13;56.51
71996;BME280;59862;47.732;7.346;2022-08-03T06:06:20;98017.63;;;21.08;56.31
71996;BME280;59862;47.732;7.346;2022-08-03T06:08:47;98023.18;;;21.11;55.97
71996;BME280;59862;47.732;7.346;2022-08-03T06:11:15;98022.67;;;21.24;55.88
71996;BME280;59862;47.732;7.346;2022-08-03T06:13:43;98023.42;;;21.28;55.68
71996;BME280;59862;47.732;7.346;2022-08-03T06:16:11;98017.64;;;21.27;55.63
71996;BME280;59862;47.732;7.346;2022-08-03T06:18:38;98023.99;;;21.31;55.32
71996;BME280;59862;47.732;7.346;2022-08-03T06:21:06;98026.88;;;21.20;55.29
71996;BME280;59862;47.732;7.346;2022-08-03T06:23:33;98028.85;;;21.42;55.25
71996;BME280;59862;47.732;7.346;2022-08-03T06:26:02;98029.50;;;21.57;54.44
71996;BME280;59862;47.732;7.346;2022-08-03T06:28:29;98032.39;;;21.65;54.73
71996;BME280;59862;47.732;7.346;2022-08-03T06:30:57;98028.80;;;21.79;53.91
71996;BME280;59862;47.732;7.346;2022-08-03T06:33:24;98025.06;;;22.05;53.99
71996;BME280;59862;47.732;7.346;2022-08-03T06:35:52;98026.52;;;22.17;53.16
71996;BME280;59862;47.732;7.346;2022-08-03T06:38:19;98026.41;;;22.08;52.49
71996;BME280;59862;47.732;7.346;2022-08-03T06:40:47;98026.04;;;22.06;52.48
71996;BME280;59862;47.732;7.346;2022-08-03T06:43:15;98024.10;;;22.30;52.30
71996;BME280;59862;47.732;7.346;2022-08-03T06:45:42;98030.52;;;22.54;51.95
71996;BME280;59862;47.732;7.346;2022-08-03T06:48:12;98035.83;;;22.60;50.69
71996;BME280;59862;47.732;7.346;2022-08-03T06:50:40;98035.16;;;22.64;50.92
71996;BME280;59862;47.732;7.346;2022-08-03T06:53:10;98037.46;;;22.85;50.97
71996;BME280;59862;47.732;7.346;2022-08-03T06:55:37;98029.28;;;22.94;49.93
71996;BME280;59862;47.732;7.346;2022-08-03T06:58:04;98032.14;;;23.02;49.75
71996;BME280;59862;47.732;7.346;2022-08-03T07:00:32;98036.03;;;23.08;49.47
71996;BME280;59862;47.732;7.346;2022-08-03T07:02:59;98034.17;;;23.21;49.10
71996;BME280;59862;47.732;7.346;2022-08-03T07:05:27;98037.38;;;23.31;49.77
71996;BME280;59862;47.732;7.346;2022-08-03T07:07:56;98042.06;;;23.50;48.26
71996;BME280;59862;47.732;7.346;2022-08-03T07:10:25;98043.89;;;23.60;48.51
71996;BME280;59862;47.732;7.346;2022-08-03T07:12:53;98038.33;;;23.76;48.36
71996;BME280;59862;47.732;7.346;2022-08-03T07:15:21;98042.74;;;23.85;47.91
71996;BME280;59862;47.732;7.346;2022-08-03T07:17:48;98034.87;;;23.96;48.19
71996;BME280;59862;47.732;7.346;2022-08-03T07:20:16;98034.14;;;24.12;46.86
71996;BME280;59862;47.732;7.346;2022-08-03T07:22:44;98041.78;;;24.12;46.91
71996;BME280;59862;47.732;7.346;2022-08-03T07:25:12;98039.43;;;24.26;47.15
71996;BME280;59862;47.732;7.346;2022-08-03T07:27:43;98044.30;;;24.42;46.41
71996;BME280;59862;47.732;7.346;2022-08-03T07:30:12;98039.22;;;24.53;45.85
71996;BME280;59862;47.732;7.346;2022-08-03T07:32:40;98040.61;;;24.70;46.17
71996;BME280;59862;47.732;7.346;2022-08-03T07:35:09;98042.58;;;24.73;45.71
71996;BME280;59862;47.732;7.346;2022-08-03T07:37:37;98043.60;;;24.71;45.82
71996;BME280;59862;47.732;7.346;2022-08-03T07:40:06;98042.75;;;24.82;44.73
71996;BME280;59862;47.732;7.346;2022-08-03T07:42:33;98043.61;;;24.95;45.25
71996;BME280;59862;47.732;7.346;2022-08-03T07:45:01;98037.61;;;25.17;44.14
71996;BME280;59862;47.732;7.346;2022-08-03T07:47:29;98038.12;;;25.20;44.29
71996;BME280;59862;47.732;7.346;2022-08-03T07:49:57;98041.00;;;25.33;44.44
71996;BME280;59862;47.732;7.346;2022-08-03T07:52:25;98038.57;;;25.56;43.57
71996;BME280;59862;47.732;7.346;2022-08-03T07:55:10;98040.77;;;25.56;43.86
71996;BME280;59862;47.732;7.346;2022-08-03T07:57:37;98046.28;;;25.89;43.25
71996;BME280;59862;47.732;7.346;2022-08-03T08:00:11;98040.98;;;26.12;42.19
71996;BME280;59862;47.732;7.346;2022-08-03T08:02:35;98042.11;;;26.27;42.97
71996;BME280;59862;47.732;7.346;2022-08-03T08:05:02;98037.94;;;26.32;42.10
71996;BME280;59862;47.732;7.346;2022-08-03T08:07:30;98036.36;;;26.31;42.28
71996;BME280;59862;47.732;7.346;2022-08-03T08:09:57;98041.57;;;26.45;41.38
71996;BME280;59862;47.732;7.346;2022-08-03T08:12:25;98038.75;;;26.70;41.25
71996;BME280;59862;47.732;7.346;2022-08-03T08:14:52;98043.41;;;26.81;41.28
71996;BME280;59862;47.732;7.346;2022-08-03T08:17:20;98046.77;;;27.02;40.34
71996;BME280;59862;47.732;7.346;2022-08-03T08:19:47;98045.23;;;27.23;39.74
71996;BME280;59862;47.732;7.346;2022-08-03T08:22:15;98037.93;;;27.47;39.48
71996;BME280;59862;47.732;7.346;2022-08-03T08:24:42;98035.92;;;27.52;38.44
71996;BME280;59862;47.732;7.346;2022-08-03T08:27:10;98023.64;;;27.29;39.34
71996;BME280;59862;47.732;7.346;2022-08-03T08:29:38;98028.30;;;27.40;40.03
71996;BME280;59862;47.732;7.346;2022-08-03T08:32:05;98022.66;;;27.84;39.25
71996;BME280;59862;47.732;7.346;2022-08-03T08:34:33;98030.69;;;28.12;38.15
71996;BME280;59862;47.732;7.346;2022-08-03T08:37:01;98028.80;;;28.44;38.70
71996;BME280;59862;47.732;7.346;2022-08-03T08:39:29;98029.09;;;28.82;37.11
71996;BME280;59862;47.732;7.346;2022-08-03T08:41:56;98034.03;;;29.18;36.70
71996;BME280;59862;47.732;7.346;2022-08-03T08:44:24;98029.34;;;29.42;35.62
71996;BME280;59862;47.732;7.346;2022-08-03T08:46:52;98020.03;;;29.19;36.13
71996;BME280;59862;47.732;7.346;2022-08-03T08:49:23;98028.41;;;29.59;35.58
71996;BME280;59862;47.732;7.346;2022-08-03T08:51:54;98033.12;;;29.71;35.13
71996;BME280;59862;47.732;7.346;2022-08-03T08:54:23;98022.84;;;29.87;34.90
71996;BME280;59862;47.732;7.346;2022-08-03T08:56:53;98021.13;;;29.94;34.55
71996;BME280;59862;47.732;7.346;2022-08-03T08:59:22;98021.13;;;30.04;34.07
71996;BME280;59862;47.732;7.346;2022-08-03T09:01:50;98026.71;;;30.26;34.02
71996;BME280;59862;47.732;7.346;2022-08-03T09:04:20;98026.44;;;30.62;33.32
71996;BME280;59862;47.732;7.346;2022-08-03T09:06:47;98020.42;;;30.55;33.40
71996;BME280;59862;47.732;7.346;2022-08-03T09:09:15;98017.17;;;29.96;34.42
71996;BME280;59862;47.732;7.346;2022-08-03T09:11:43;98017.89;;;30.24;33.65
71996;BME280;59862;47.732;7.346;2022-08-03T09:14:11;98024.72;;;30.13;34.26
71996;BME280;59862;47.732;7.346;2022-08-03T09:17:01;98019.24;;;29.78;34.94
71996;BME280;59862;47.732;7.346;2022-08-03T09:19:13;98013.05;;;30.49;33.29
71996;BME280;59862;47.732;7.346;2022-08-03T09:21:41;98021.63;;;30.77;33.02
71996;BME280;59862;47.732;7.346;2022-08-03T09:24:08;98024.68;;;31.21;32.90
71996;BME280;59862;47.732;7.346;2022-08-03T09:26:37;98020.19;;;31.30;32.69
71996;BME280;59862;47.732;7.346;2022-08-03T09:29:11;98022.73;;;31.47;31.62
71996;BME280;59862;47.732;7.346;2022-08-03T09:31:40;98027.35;;;31.59;31.28
71996;BME280;59862;47.732;7.346;2022-08-03T09:34:10;98024.19;;;31.96;30.98
71996;BME280;59862;47.732;7.346;2022-08-03T09:36:43;98019.48;;;32.07;31.10
71996;BME280;59862;47.732;7.346;2022-08-03T09:39:19;98020.06;;;32.11;30.55
71996;BME280;59862;47.732;7.346;2022-08-03T09:44:36;98021.25;;;31.90;30.50
71996;BME280;59862;47.732;7.346;2022-08-03T09:47:05;98008.62;;;32.16;30.21
71996;BME280;59862;47.732;7.346;2022-08-03T09:49:32;98007.20;;;31.72;31.11
71996;BME280;59862;47.732;7.346;2022-08-03T09:52:11;98013.11;;;31.98;31.06
71996;BME280;59862;47.732;7.346;2022-08-03T09:54:40;98009.82;;;32.24;29.39
71996;BME280;59862;47.732;7.346;2022-08-03T09:57:18;98007.14;;;32.21;30.58
71996;BME280;59862;47.732;7.346;2022-08-03T09:59:39;98005.78;;;32.31;29.94
71996;BME280;59862;47.732;7.346;2022-08-03T10:02:18;98009.79;;;32.39;29.55
71996;BME280;59862;47.732;7.346;2022-08-03T10:04:45;98002.89;;;33.26;28.05
71996;BME280;59862;47.732;7.346;2022-08-03T10:07:09;98003.66;;;32.96;29.30
71996;BME280;59862;47.732;7.346;2022-08-03T10:09:37;98009.23;;;34.08;27.15
71996;BME280;59862;47.732;7.346;2022-08-03T10:12:11;98005.00;;;35.03;25.75
71996;BME280;59862;47.732;7.346;2022-08-03T10:14:40;98007.08;;;36.34;24.92
71996;BME280;59862;47.732;7.346;2022-08-03T10:17:09;98000.05;;;36.51;23.85
71996;BME280;59862;47.732;7.346;2022-08-03T10:19:37;97995.64;;;37.02;23.24
71996;BME280;59862;47.732;7.346;2022-08-03T10:22:33;97987.00;;;36.62;24.05
71996;BME280;59862;47.732;7.346;2022-08-03T10:25:05;97987.54;;;37.69;23.15
71996;BME280;59862;47.732;7.346;2022-08-03T10:27:38;97982.92;;;38.86;21.92
71996;BME280;59862;47.732;7.346;2022-08-03T10:30:08;97979.57;;;38.82;21.90
71996;BME280;59862;47.732;7.346;2022-08-03T10:32:58;97980.74;;;39.48;20.79
71996;BME280;59862;47.732;7.346;2022-08-03T10:35:25;97976.84;;;39.95;20.56
71996;BME280;59862;47.732;7.346;2022-08-03T10:38:02;97968.41;;;38.97;21.07
71996;BME280;59862;47.732;7.346;2022-08-03T10:40:33;97971.94;;;40.29;19.78
71996;BME280;59862;47.732;7.346;2022-08-03T10:43:10;97969.99;;;41.02;18.99
71996;BME280;59862;47.732;7.346;2022-08-03T10:45:40;97963.98;;;38.96;20.23
71996;BME280;59862;47.732;7.346;2022-08-03T10:48:08;97968.53;;;38.02;22.15
71996;BME280;59862;47.732;7.346;2022-08-03T10:50:36;97964.95;;;38.26;21.53
71996;BME280;59862;47.732;7.346;2022-08-03T10:53:07;97958.62;;;38.63;21.35
71996;BME280;59862;47.732;7.346;2022-08-03T10:55:43;97962.70;;;39.85;19.58
71996;BME280;59862;47.732;7.346;2022-08-03T11:01:11;97949.66;;;36.38;22.97
71996;BME280;59862;47.732;7.346;2022-08-03T11:06:27;97949.16;;;37.49;21.21
71996;BME280;59862;47.732;7.346;2022-08-03T11:11:47;97946.52;;;37.80;20.60
71996;BME280;59862;47.732;7.346;2022-08-03T11:14:13;97942.84;;;38.45;19.94
71996;BME280;59862;47.732;7.346;2022-08-03T11:17:05;97938.59;;;38.88;18.96
71996;BME280;59862;47.732;7.346;2022-08-03T11:19:21;97940.23;;;39.27;19.14
71996;BME280;59862;47.732;7.346;2022-08-03T11:21:52;97932.21;;;38.64;19.68
71996;BME280;59862;47.732;7.346;2022-08-03T11:27:16;97933.86;;;39.97;18.40
71996;BME280;59862;47.732;7.346;2022-08-03T11:30:10;97929.99;;;41.79;17.12
71996;BME280;59862;47.732;7.346;2022-08-03T11:40:43;97919.57;;;42.39;16.64
71996;BME280;59862;47.732;7.346;2022-08-03T11:46:11;97915.49;;;42.14;15.76
71996;BME280;59862;47.732;7.346;2022-08-03T11:48:46;97920.45;;;41.78;16.53
71996;BME280;59862;47.732;7.346;2022-08-03T11:51:24;97912.61;;;41.52;16.79
71996;BME280;59862;47.732;7.346;2022-08-03T11:53:54;97917.19;;;42.30;15.93
71996;BME280;59862;47.732;7.346;2022-08-03T11:56:22;97915.82;;;41.55;16.62
71996;BME280;59862;47.732;7.346;2022-08-03T11:58:52;97906.19;;;40.79;17.07
71996;BME280;59862;47.732;7.346;2022-08-03T12:01:21;97911.13;;;42.98;15.77
71996;BME280;59862;47.732;7.346;2022-08-03T12:03:50;97908.98;;;44.09;14.39
71996;BME280;59862;47.732;7.346;2022-08-03T12:06:18;97905.64;;;44.81;14.19
71996;BME280;59862;47.732;7.346;2022-08-03T12:08:46;97901.06;;;44.40;13.96
71996;BME280;59862;47.732;7.346;2022-08-03T12:11:15;97904.16;;;44.19;14.73
71996;BME280;59862;47.732;7.346;2022-08-03T12:13:45;97901.46;;;42.67;14.57
71996;BME280;59862;47.732;7.346;2022-08-03T12:16:21;97899.08;;;42.72;14.79
71996;BME280;59862;47.732;7.346;2022-08-03T12:19:05;97888.70;;;42.34;14.94
71996;BME280;59862;47.732;7.346;2022-08-03T12:21:33;97898.52;;;42.24;15.17
71996;BME280;59862;47.732;7.346;2022-08-03T12:24:03;97898.52;;;42.24;15.17
71996;BME280;59862;47.732;7.346;2022-08-03T12:26:43;97891.98;;;44.51;12.83
71996;BME280;59862;47.732;7.346;2022-08-03T12:29:21;97893.76;;;44.85;11.61
71996;BME280;59862;47.732;7.346;2022-08-03T12:31:51;97889.16;;;45.70;11.26
71996;BME280;59862;47.732;7.346;2022-08-03T12:34:18;97893.95;;;47.01;9.94
71996;BME280;59862;47.732;7.346;2022-08-03T12:36:54;97882.13;;;46.73;10.62
71996;BME280;59862;47.732;7.346;2022-08-03T12:39:24;97880.76;;;47.00;10.50
71996;BME280;59862;47.732;7.346;2022-08-03T12:41:54;97882.48;;;46.94;10.71
71996;BME280;59862;47.732;7.346;2022-08-03T12:44:34;97879.15;;;47.42;10.38
71996;BME280;59862;47.732;7.346;2022-08-03T12:46:58;97879.35;;;47.71;9.86
71996;BME280;59862;47.732;7.346;2022-08-03T12:49:26;97875.84;;;46.68;10.22
71996;BME280;59862;47.732;7.346;2022-08-03T12:51:56;97878.35;;;49.17;9.23
71996;BME280;59862;47.732;7.346;2022-08-03T12:54:26;97878.16;;;49.63;8.85
71996;BME280;59862;47.732;7.346;2022-08-03T12:57:01;97876.28;;;49.28;8.93
71996;BME280;59862;47.732;7.346;2022-08-03T12:59:31;97873.20;;;47.67;10.30
71996;BME280;59862;47.732;7.346;2022-08-03T13:02:00;97868.28;;;48.15;9.85
71996;BME280;59862;47.732;7.346;2022-08-03T13:04:30;97869.02;;;47.16;10.17
71996;BME280;59862;47.732;7.346;2022-08-03T13:07:03;97867.27;;;47.30;10.36
71996;BME280;59862;47.732;7.346;2022-08-03T13:09:46;97863.28;;;47.17;10.98
71996;BME280;59862;47.732;7.346;2022-08-03T13:12:15;97863.56;;;48.19;9.92
71996;BME280;59862;47.732;7.346;2022-08-03T13:14:45;97855.13;;;46.64;10.72
71996;BME280;59862;47.732;7.346;2022-08-03T13:17:13;97859.69;;;47.98;10.26
71996;BME280;59862;47.732;7.346;2022-08-03T13:19:43;97858.20;;;47.89;10.17
71996;BME280;59862;47.732;7.346;2022-08-03T13:22:22;97859.47;;;47.50;10.34
71996;BME280;59862;47.732;7.346;2022-08-03T13:24:52;97849.44;;;47.35;10.42
71996;BME280;59862;47.732;7.346;2022-08-03T13:27:21;97846.09;;;48.48;10.48
71996;BME280;59862;47.732;7.346;2022-08-03T13:29:50;97854.81;;;47.56;10.79
71996;BME280;59862;47.732;7.346;2022-08-03T13:32:19;97841.87;;;46.45;11.18
71996;BME280;59862;47.732;7.346;2022-08-03T13:34:47;97846.25;;;45.13;12.33
71996;BME280;59862;47.732;7.346;2022-08-03T13:37:15;97837.26;;;47.11;11.00
71996;BME280;59862;47.732;7.346;2022-08-03T13:39:42;97841.84;;;47.85;10.94
71996;BME280;59862;47.732;7.346;2022-08-03T13:42:09;97843.08;;;47.55;11.23
71996;BME280;59862;47.732;7.346;2022-08-03T13:44:37;97841.88;;;48.13;10.46